createdAt,value
2018-08-14T00:01:40.152Z,4.23
2018-08-14T00:04:06.973Z,3.77
2018-08-14T00:06:33.799Z,2.50
2018-08-14T00:09:00.533Z,4.73
2018-08-14T00:11:27.327Z,3.97
2018-08-14T00:13:54.152Z,2.97
2018-08-14T00:16:20.891Z,4.60
2018-08-14T00:18:47.682Z,7.23
2018-08-14T00:21:14.517Z,4.10
2018-08-14T00:23:41.377Z,4.50
2018-08-14T00:26:08.153Z,5.57
2018-08-14T00:28:34.984Z,2.77
2018-08-14T00:31:01.748Z,3.13
2018-08-14T00:33:28.589Z,3.07
2018-08-14T00:35:55.406Z,4.13
2018-08-14T00:38:22.219Z,4.43
2018-08-14T00:40:49.193Z,3.07
2018-08-14T00:43:16.177Z,4.30
2018-08-14T00:45:42.942Z,4.57
2018-08-14T00:48:09.735Z,3.57
2018-08-14T00:50:36.510Z,4.93
2018-08-14T00:53:03.273Z,4.17
2018-08-14T00:55:30.046Z,6.50
2018-08-14T00:57:56.825Z,4.07
2018-08-14T01:00:23.531Z,4.43
2018-08-14T01:02:50.463Z,4.13
2018-08-14T01:05:17.669Z,6.13
2018-08-14T01:07:44.478Z,3.60
2018-08-14T01:10:12.896Z,3.23
2018-08-14T01:12:44.102Z,5.60
2018-08-14T01:15:12.086Z,2.47
2018-08-14T01:17:38.746Z,2.97
2018-08-14T01:20:05.653Z,4.63
2018-08-14T01:22:32.686Z,3.30
2018-08-14T01:24:59.526Z,2.27
2018-08-14T01:27:27.103Z,5.13
2018-08-14T01:29:53.932Z,4.63
2018-08-14T01:32:20.762Z,7.60
2018-08-14T01:34:47.654Z,3.60
2018-08-14T01:37:14.470Z,3.97
2018-08-14T01:39:41.255Z,4.20
2018-08-14T01:42:08.150Z,6.63
2018-08-14T01:44:35.530Z,5.60
2018-08-14T01:47:02.461Z,6.17
2018-08-14T01:49:29.519Z,5.17
2018-08-14T01:51:56.272Z,4.60
2018-08-14T01:54:23.110Z,3.77
2018-08-14T01:56:49.997Z,5.37
2018-08-14T01:59:16.862Z,7.73
2018-08-14T02:01:44.996Z,5.60
2018-08-14T02:04:12.675Z,7.93
2018-08-14T02:06:39.695Z,7.10
2018-08-14T02:09:06.394Z,5.57
2018-08-14T02:11:33.278Z,4.87
2018-08-14T02:14:00.756Z,5.00
2018-08-14T02:16:28.811Z,4.43
2018-08-14T02:18:55.668Z,4.03
2018-08-14T02:21:22.629Z,5.53
2018-08-14T02:23:49.852Z,4.07
2018-08-14T02:26:16.710Z,4.83
2018-08-14T02:28:44.209Z,8.47
2018-08-14T02:31:10.924Z,4.67
2018-08-14T02:33:37.843Z,6.37
2018-08-14T02:36:04.892Z,4.50
2018-08-14T02:38:31.755Z,6.37
2018-08-14T02:40:58.857Z,7.73
2018-08-14T02:43:25.751Z,4.63
2018-08-14T02:45:52.462Z,5.27
2018-08-14T02:48:19.321Z,5.13
2018-08-14T02:50:46.574Z,7.00
2018-08-14T02:53:13.934Z,5.67
2018-08-14T02:55:40.733Z,4.40
2018-08-14T02:58:07.578Z,4.07
2018-08-14T03:00:38.373Z,5.47
2018-08-14T03:03:05.292Z,4.23
2018-08-14T03:05:32.734Z,6.70
2018-08-14T03:08:00.305Z,4.73
2018-08-14T03:10:27.157Z,6.93
2018-08-14T03:12:53.903Z,6.57
2018-08-14T03:15:21.277Z,5.10
2018-08-14T03:17:48.190Z,4.40
2018-08-14T03:20:15.690Z,4.30
2018-08-14T03:22:42.479Z,5.40
2018-08-14T03:25:09.361Z,6.73
2018-08-14T03:27:37.457Z,4.60
2018-08-14T03:30:05.659Z,4.73
2018-08-14T03:32:32.492Z,5.03
2018-08-14T03:34:59.341Z,4.83
2018-08-14T03:37:26.129Z,3.40
2018-08-14T03:39:53.919Z,4.30
2018-08-14T03:42:20.715Z,3.67
2018-08-14T03:44:47.586Z,3.53
2018-08-14T03:47:14.445Z,7.87
2018-08-14T03:49:41.511Z,3.77
2018-08-14T03:52:09.107Z,4.43
2018-08-14T03:54:36.115Z,3.77
2018-08-14T03:57:03.225Z,6.27
2018-08-14T03:59:30.107Z,4.90
2018-08-14T04:01:56.918Z,4.40
2018-08-14T04:04:24.231Z,5.10
2018-08-14T04:06:51.015Z,5.07
2018-08-14T04:09:18.172Z,4.03
2018-08-14T04:11:45.220Z,5.43
2018-08-14T04:14:12.195Z,5.30
2018-08-14T04:16:39.044Z,4.30
2018-08-14T04:19:05.921Z,3.80
2018-08-14T04:21:32.812Z,5.30
2018-08-14T04:23:59.564Z,4.70
2018-08-14T04:26:26.638Z,4.63
2018-08-14T04:28:53.678Z,5.10
2018-08-14T04:31:21.632Z,4.73
2018-08-14T04:33:48.648Z,6.77
2018-08-14T04:36:15.573Z,4.30
2018-08-14T04:38:42.377Z,4.47
2018-08-14T04:41:09.353Z,4.53
2018-08-14T04:43:36.505Z,4.70
2018-08-14T04:46:04.237Z,5.83
2018-08-14T04:48:31.717Z,5.07
2018-08-14T04:51:00.328Z,6.07
2018-08-14T04:53:27.511Z,4.87
2018-08-14T04:55:54.392Z,6.30
2018-08-14T04:58:26.569Z,3.93
2018-08-14T05:00:56.978Z,3.97
2018-08-14T05:03:23.887Z,4.00
2018-08-14T05:05:50.828Z,4.37
2018-08-14T05:08:17.837Z,5.33
2018-08-14T05:10:44.600Z,4.53
2018-08-14T05:13:11.463Z,4.97
2018-08-14T05:15:38.824Z,5.97
2018-08-14T05:18:13.926Z,5.47
2018-08-14T05:20:42.057Z,5.67
2018-08-14T05:23:09.040Z,4.30
2018-08-14T05:25:35.841Z,5.30
2018-08-14T05:28:02.645Z,5.03
2018-08-14T05:30:29.421Z,7.63
2018-08-14T05:32:56.392Z,5.73
2018-08-14T05:35:23.265Z,5.67
2018-08-14T05:37:50.037Z,5.30
2018-08-14T05:41:46.280Z,4.40
2018-08-14T05:44:13.099Z,4.40
2018-08-14T05:46:40.221Z,6.30
2018-08-14T05:49:07.334Z,6.20
2018-08-14T05:51:34.414Z,4.77
2018-08-14T05:54:01.939Z,9.13
2018-08-14T05:56:28.872Z,5.67
2018-08-14T05:58:55.837Z,5.27
2018-08-14T06:01:22.689Z,6.40
2018-08-14T06:03:49.873Z,3.90
2018-08-14T06:06:16.955Z,8.33
2018-08-14T06:08:44.265Z,6.23
2018-08-14T06:11:21.025Z,5.53
2018-08-14T06:13:59.131Z,4.37
2018-08-14T06:16:26.961Z,5.50
2018-08-14T06:18:55.228Z,5.90
2018-08-14T06:21:22.231Z,5.83
2018-08-14T06:23:49.129Z,4.70
2018-08-14T06:26:16.077Z,4.50
2018-08-14T06:28:43.077Z,5.63
2018-08-14T06:31:09.951Z,5.33
2018-08-14T06:33:36.818Z,5.20
2018-08-14T06:36:03.708Z,5.17
2018-08-14T06:38:30.642Z,6.13
2018-08-14T06:40:57.462Z,6.83
2018-08-14T06:43:24.458Z,4.53
2018-08-14T06:45:51.391Z,5.73
2018-08-14T06:48:18.220Z,6.50
2018-08-14T06:50:45.039Z,5.27
2018-08-14T06:53:11.952Z,6.90
2018-08-14T06:55:38.823Z,5.50
2018-08-14T06:58:05.806Z,5.80
2018-08-14T07:00:32.667Z,6.10
2018-08-14T07:02:59.520Z,7.97
2018-08-14T07:05:26.334Z,6.30
2018-08-14T07:07:53.143Z,5.60
2018-08-14T07:10:19.834Z,6.80
2018-08-14T07:12:46.729Z,6.33
2018-08-14T07:15:15.455Z,5.67
2018-08-14T07:17:42.524Z,5.47
2018-08-14T07:20:10.407Z,5.70
2018-08-14T07:22:37.189Z,5.20
2018-08-14T07:25:04.151Z,8.53
2018-08-14T07:27:31.026Z,5.27
2018-08-14T07:29:57.819Z,4.50
2018-08-14T07:32:24.694Z,4.63
2018-08-14T07:34:51.628Z,5.40
2018-08-14T07:37:18.471Z,4.27
2018-08-14T07:39:45.498Z,5.17
2018-08-14T07:42:12.287Z,5.03
2018-08-14T07:44:39.172Z,5.53
2018-08-14T07:47:05.945Z,4.93
2018-08-14T07:49:33.109Z,5.77
2018-08-14T07:52:00.177Z,5.20
2018-08-14T07:54:26.929Z,5.93
2018-08-14T07:56:53.786Z,7.00
2018-08-14T07:59:20.537Z,5.00
2018-08-14T08:01:48.262Z,6.37
2018-08-14T08:04:15.305Z,5.40
2018-08-14T08:06:42.535Z,6.27
2018-08-14T08:09:10.240Z,7.70
2018-08-14T08:11:36.969Z,6.80
2018-08-14T08:14:03.901Z,6.43
2018-08-14T08:16:30.776Z,4.33
2018-08-14T08:18:57.687Z,4.23
2018-08-14T08:21:24.505Z,5.50
2018-08-14T08:23:51.232Z,4.67
2018-08-14T08:26:18.139Z,5.50
2018-08-14T08:28:45.069Z,5.13
2018-08-14T08:31:12.023Z,5.37
2018-08-14T08:33:38.896Z,4.90
2018-08-14T08:36:05.868Z,4.50
2018-08-14T08:38:32.820Z,5.47
2018-08-14T08:40:59.713Z,5.03
2018-08-14T08:43:26.675Z,5.50
2018-08-14T08:45:53.511Z,5.53
2018-08-14T08:48:21.895Z,5.20
2018-08-14T08:50:49.254Z,4.53
2018-08-14T08:53:16.576Z,4.10
2018-08-14T08:55:43.629Z,6.40
2018-08-14T08:58:10.481Z,4.73
2018-08-14T09:00:37.378Z,6.77
2018-08-14T09:03:04.115Z,4.27
2018-08-14T09:05:31.039Z,5.50
2018-08-14T09:07:58.664Z,5.13
2018-08-14T09:10:25.563Z,5.73
2018-08-14T09:12:52.461Z,4.83
2018-08-14T09:15:19.438Z,4.00
2018-08-14T09:17:47.507Z,5.93
2018-08-14T09:20:14.536Z,8.93
2018-08-14T09:22:41.371Z,4.00
2018-08-14T09:25:08.696Z,6.33
2018-08-14T09:27:36.197Z,3.50
2018-08-14T09:30:03.643Z,4.50
2018-08-14T09:32:30.576Z,3.70
2018-08-14T09:34:57.570Z,5.70
2018-08-14T09:37:25.602Z,3.53
2018-08-14T09:39:52.671Z,3.87
2018-08-14T09:42:19.825Z,4.73
2018-08-14T09:44:47.740Z,3.93
2018-08-14T09:47:16.073Z,4.90
2018-08-14T09:49:43.656Z,5.47
2018-08-14T09:52:11.186Z,5.80
2018-08-14T09:54:38.089Z,3.10
2018-08-14T09:57:05.006Z,5.60
2018-08-14T09:59:32.438Z,4.23
2018-08-14T10:02:04.913Z,4.80
2018-08-14T10:04:37.238Z,3.13
2018-08-14T10:07:09.570Z,4.80
2018-08-14T10:09:36.652Z,4.53
2018-08-14T10:12:03.573Z,5.30
2018-08-14T10:14:34.196Z,4.00
2018-08-14T10:17:01.291Z,3.70
2018-08-14T10:19:28.205Z,4.40
2018-08-14T10:21:55.178Z,4.00
2018-08-14T10:24:22.064Z,3.53
2018-08-14T10:26:48.975Z,4.47
2018-08-14T10:29:15.909Z,4.07
2018-08-14T10:31:42.711Z,3.20
2018-08-14T10:34:09.448Z,3.37
2018-08-14T10:36:36.229Z,3.23
2018-08-14T10:39:03.769Z,4.07
2018-08-14T10:41:30.694Z,5.43
2018-08-14T10:43:57.398Z,3.33
2018-08-14T10:46:24.406Z,4.67
2018-08-14T10:48:51.184Z,4.07
2018-08-14T10:51:17.972Z,6.70
2018-08-14T10:53:44.855Z,4.17
2018-08-14T10:56:11.694Z,4.60
2018-08-14T10:58:38.601Z,3.40
2018-08-14T11:01:06.136Z,3.37
2018-08-14T11:03:32.996Z,5.37
2018-08-14T11:06:00.009Z,3.87
2018-08-14T11:08:27.434Z,3.77
2018-08-14T11:10:59.873Z,3.33
2018-08-14T11:13:26.608Z,3.63
2018-08-14T11:15:53.600Z,3.33
2018-08-14T11:18:20.424Z,3.30
2018-08-14T11:20:47.324Z,4.23
2018-08-14T11:23:18.369Z,3.37
2018-08-14T11:25:46.308Z,3.37
2018-08-14T11:28:13.235Z,4.10
2018-08-14T11:30:39.988Z,4.27
2018-08-14T11:33:06.828Z,2.67
2018-08-14T11:35:39.162Z,5.03
2018-08-14T11:38:06.082Z,3.67
2018-08-14T11:40:33.059Z,3.93
2018-08-14T11:42:59.988Z,3.87
2018-08-14T11:45:27.909Z,3.67
2018-08-14T11:47:54.786Z,3.30
2018-08-14T11:50:22.048Z,3.37
2018-08-14T11:52:50.233Z,3.43
2018-08-14T11:55:18.346Z,4.93
2018-08-14T11:57:45.768Z,3.07
2018-08-14T12:00:16.453Z,2.87
2018-08-14T12:02:43.854Z,3.20
2018-08-14T12:05:10.918Z,4.27
2018-08-14T12:07:39.065Z,2.90
2018-08-14T12:10:06.376Z,2.97
2018-08-14T12:12:33.349Z,3.90
2018-08-14T12:15:00.283Z,2.83
2018-08-14T12:17:27.145Z,2.93
2018-08-14T12:19:54.977Z,2.77
2018-08-14T12:22:22.038Z,3.23
2018-08-14T12:24:49.239Z,3.97
2018-08-14T12:27:16.257Z,2.43
2018-08-14T12:29:43.325Z,2.73
2018-08-14T12:32:10.249Z,2.70
2018-08-14T12:34:37.148Z,2.90
2018-08-14T12:37:04.123Z,4.77
2018-08-14T12:39:31.014Z,2.63
2018-08-14T12:41:58.033Z,2.73
2018-08-14T12:44:25.236Z,3.40
2018-08-14T12:46:52.287Z,3.00
2018-08-14T12:49:19.192Z,2.63
2018-08-14T12:51:46.089Z,2.70
2018-08-14T12:54:12.899Z,3.50
2018-08-14T12:56:39.861Z,5.40
2018-08-14T12:59:06.876Z,3.50
2018-08-14T13:01:34.018Z,4.40
2018-08-14T13:04:00.934Z,2.90
2018-08-14T13:06:27.874Z,2.33
2018-08-14T13:08:54.785Z,2.90
2018-08-14T13:11:22.036Z,3.30
2018-08-14T13:13:48.893Z,2.10
2018-08-14T13:16:15.853Z,2.00
2018-08-14T13:18:42.838Z,1.87
2018-08-14T13:21:09.739Z,2.30
2018-08-14T13:23:36.499Z,2.40
2018-08-14T13:26:03.500Z,2.07
2018-08-14T13:28:30.369Z,2.27
2018-08-14T13:30:57.229Z,1.90
2018-08-14T13:33:24.350Z,1.57
2018-08-14T13:35:51.205Z,1.53
2018-08-14T13:38:18.338Z,2.20
2018-08-14T13:40:45.370Z,1.70
2018-08-14T13:43:12.317Z,1.70
2018-08-14T13:45:39.282Z,1.70
2018-08-14T13:48:06.202Z,1.67
2018-08-14T13:50:33.114Z,1.43
2018-08-14T13:52:59.938Z,2.37
2018-08-14T13:55:26.796Z,1.40
2018-08-14T13:57:53.602Z,1.40
2018-08-14T14:00:20.910Z,1.87
2018-08-14T14:02:47.861Z,3.83
2018-08-14T14:05:15.009Z,1.37
2018-08-14T14:07:41.854Z,2.83
2018-08-14T14:10:10.118Z,1.43
2018-08-14T14:12:37.004Z,1.60
2018-08-14T14:15:07.831Z,1.60
2018-08-14T14:17:34.643Z,3.50
2018-08-14T14:20:01.520Z,2.17
2018-08-14T14:22:28.337Z,2.00
2018-08-14T14:24:55.172Z,1.70
2018-08-14T14:27:22.095Z,1.83
2018-08-14T14:29:48.821Z,1.23
2018-08-14T14:32:15.769Z,2.87
2018-08-14T14:34:42.609Z,1.70
2018-08-14T14:37:09.655Z,3.27
2018-08-14T14:39:36.426Z,1.50
2018-08-14T14:42:03.162Z,3.93
2018-08-14T14:44:30.142Z,2.77
2018-08-14T14:46:57.122Z,4.50
2018-08-14T14:49:23.983Z,1.53
2018-08-14T14:51:50.919Z,1.60
2018-08-14T14:54:17.707Z,1.93
2018-08-14T14:56:44.496Z,2.07
2018-08-14T14:59:11.306Z,1.87
2018-08-14T15:01:38.230Z,3.73
2018-08-14T15:04:05.077Z,1.87
2018-08-14T15:06:31.880Z,1.83
2018-08-14T15:08:58.770Z,3.13
2018-08-14T15:11:25.630Z,3.00
2018-08-14T15:13:52.504Z,1.50
2018-08-14T15:16:19.452Z,2.00
2018-08-14T15:18:46.382Z,2.33
2018-08-14T15:21:13.344Z,1.83
2018-08-14T15:23:40.226Z,2.13
2018-08-14T15:26:07.148Z,1.90
2018-08-14T15:28:33.987Z,3.63
2018-08-14T15:31:00.888Z,4.43
2018-08-14T15:33:27.698Z,2.20
2018-08-14T15:35:54.540Z,2.17
2018-08-14T15:38:21.402Z,2.40
2018-08-14T15:40:48.305Z,2.33
2018-08-14T15:43:15.071Z,2.77
2018-08-14T15:45:41.902Z,2.43
2018-08-14T15:48:08.878Z,3.03
2018-08-14T15:50:35.811Z,3.27
2018-08-14T15:53:02.705Z,2.60
2018-08-14T15:55:32.134Z,2.57
2018-08-14T15:57:59.248Z,2.63
2018-08-14T16:00:26.162Z,2.40
2018-08-14T16:02:53.138Z,3.43
2018-08-14T16:05:20.629Z,2.43
2018-08-14T16:07:48.193Z,2.63
2018-08-14T16:10:14.977Z,2.07
2018-08-14T16:12:41.990Z,2.07
2018-08-14T16:15:09.633Z,1.97
2018-08-14T16:17:36.457Z,2.87
2018-08-14T16:20:03.459Z,1.90
2018-08-14T16:22:30.246Z,2.10
2018-08-14T16:24:57.903Z,1.77
2018-08-14T16:27:24.768Z,2.43
2018-08-14T16:29:51.704Z,3.93
2018-08-14T16:32:18.814Z,3.60
2018-08-14T16:34:45.634Z,2.33
2018-08-14T16:37:12.606Z,2.40
2018-08-14T16:39:39.494Z,3.07
2018-08-14T16:42:06.313Z,2.23
2018-08-14T16:44:33.042Z,2.80
2018-08-14T16:46:59.957Z,3.53
2018-08-14T16:49:26.836Z,2.10
2018-08-14T16:51:53.928Z,2.00
2018-08-14T16:54:20.804Z,2.17
2018-08-14T16:56:47.838Z,4.50
2018-08-14T16:59:14.678Z,2.80
2018-08-14T17:01:41.567Z,2.27
2018-08-14T17:04:08.343Z,2.77
2018-08-14T17:06:35.270Z,2.20
2018-08-14T17:09:02.179Z,1.87
2018-08-14T17:11:29.060Z,3.07
2018-08-14T17:13:55.817Z,4.83
2018-08-14T17:16:22.616Z,3.10
2018-08-14T17:18:49.540Z,2.67
2018-08-14T17:21:16.321Z,1.60
2018-08-14T17:23:43.156Z,2.20
2018-08-14T17:26:09.875Z,1.77
2018-08-14T17:28:36.646Z,2.50
2018-08-14T17:31:03.446Z,2.93
2018-08-14T17:33:30.248Z,2.10
2018-08-14T17:35:57.137Z,2.30
2018-08-14T17:38:24.120Z,2.20
2018-08-14T17:40:51.028Z,2.17
2018-08-14T17:43:17.904Z,2.90
2018-08-14T17:45:44.890Z,2.17
2018-08-14T17:48:11.780Z,2.63
2018-08-14T17:50:39.345Z,2.73
2018-08-14T17:53:06.253Z,2.40
2018-08-14T17:55:33.005Z,2.33
2018-08-14T17:58:00.225Z,4.20
2018-08-14T18:00:31.104Z,2.30
2018-08-14T18:02:58.124Z,2.07
2018-08-14T18:05:24.920Z,1.70
2018-08-14T18:07:51.704Z,3.10
2018-08-14T18:10:19.694Z,2.17
2018-08-14T18:12:46.760Z,1.90
2018-08-14T18:15:14.491Z,1.80
2018-08-14T18:17:41.501Z,1.83
2018-08-14T18:20:09.494Z,1.70
2018-08-14T18:22:36.680Z,1.80
2018-08-14T18:25:03.542Z,3.17
2018-08-14T18:27:30.301Z,3.67
2018-08-14T18:29:57.142Z,4.23
2018-08-14T18:32:23.958Z,1.73
2018-08-14T18:34:50.925Z,2.27
2018-08-14T18:37:18.692Z,6.00
2018-08-14T18:39:45.748Z,3.00
2018-08-14T18:42:12.807Z,2.20
2018-08-14T18:44:41.353Z,2.10
2018-08-14T18:47:08.831Z,3.03
2018-08-14T18:49:35.678Z,2.57
2018-08-14T18:52:02.559Z,3.07
2018-08-14T18:54:29.603Z,3.43
2018-08-14T18:56:56.560Z,3.07
2018-08-14T18:59:23.449Z,2.40
2018-08-14T19:01:50.816Z,2.97
2018-08-14T19:04:18.228Z,1.70
2018-08-14T19:06:45.409Z,3.10
2018-08-14T19:09:12.856Z,2.00
2018-08-14T19:11:39.742Z,2.00
2018-08-14T19:14:06.884Z,2.00
2018-08-14T19:16:33.906Z,2.17
2018-08-14T19:19:03.688Z,2.90
2018-08-14T19:21:34.012Z,2.10
2018-08-14T19:24:00.822Z,2.37
2018-08-14T19:26:27.922Z,1.80
2018-08-14T19:28:54.992Z,3.20
2018-08-14T19:31:22.447Z,2.00
2018-08-14T19:33:49.497Z,1.90
2018-08-14T19:36:16.888Z,2.00
2018-08-14T19:38:43.960Z,2.13
2018-08-14T19:41:11.497Z,1.93
2018-08-14T19:43:38.259Z,2.20
2018-08-14T19:46:05.503Z,1.90
2018-08-14T19:48:32.437Z,2.70
2018-08-14T19:50:59.262Z,2.53
2018-08-14T19:53:26.017Z,1.77
2018-08-14T19:55:52.867Z,2.50
2018-08-14T19:58:19.820Z,2.53
2018-08-14T20:00:47.523Z,1.90
2018-08-14T20:03:14.336Z,2.10
2018-08-14T20:05:41.175Z,2.30
2018-08-14T20:08:08.308Z,2.17
2018-08-14T20:10:35.373Z,2.03
2018-08-14T20:13:02.254Z,1.60
2018-08-14T20:15:34.796Z,1.60
2018-08-14T20:18:01.641Z,2.60
2018-08-14T20:20:28.486Z,2.53
2018-08-14T20:22:55.333Z,1.93
2018-08-14T20:25:22.204Z,2.90
2018-08-14T20:27:49.028Z,2.93
2018-08-14T20:30:17.171Z,2.50
2018-08-14T20:32:44.083Z,1.77
2018-08-14T20:35:11.808Z,3.00
2018-08-14T20:37:38.838Z,3.07
2018-08-14T20:40:05.682Z,2.60
2018-08-14T20:42:32.426Z,1.83
2018-08-14T20:44:59.315Z,2.87
2018-08-14T20:47:26.135Z,2.13
2018-08-14T20:49:53.090Z,1.83
2018-08-14T20:52:19.932Z,2.63
2018-08-14T20:54:46.772Z,2.00
2018-08-14T20:57:13.657Z,2.27
2018-08-14T20:59:40.584Z,3.70
2018-08-14T21:02:07.408Z,2.07
2018-08-14T21:04:34.562Z,2.90
2018-08-14T21:07:02.252Z,2.17
2018-08-14T21:09:29.275Z,2.13
2018-08-14T21:11:56.126Z,2.40
2018-08-14T21:14:22.933Z,1.80
2018-08-14T21:16:50.613Z,2.37
2018-08-14T21:19:17.480Z,2.77
2018-08-14T21:21:44.428Z,4.07
2018-08-14T21:24:11.244Z,2.27
2018-08-14T21:26:38.258Z,2.60
2018-08-14T21:29:05.856Z,2.30
2018-08-14T21:31:32.738Z,1.97
2018-08-14T21:33:59.646Z,2.33
2018-08-14T21:36:26.632Z,2.33
2018-08-14T21:38:54.092Z,2.30
2018-08-14T21:41:21.102Z,2.50
2018-08-14T21:43:48.094Z,2.87
2018-08-14T21:46:14.860Z,3.87
2018-08-14T21:48:42.456Z,2.40
2018-08-14T21:51:09.447Z,2.27
2018-08-14T21:53:36.164Z,2.33
2018-08-14T21:56:03.548Z,1.90
2018-08-14T21:58:30.561Z,2.13
2018-08-14T22:01:01.166Z,2.10
2018-08-14T22:03:27.945Z,2.13
2018-08-14T22:05:54.798Z,2.63
2018-08-14T22:08:21.882Z,2.47
2018-08-14T22:10:48.725Z,2.70
2018-08-14T22:13:15.573Z,3.13
2018-08-14T22:15:44.021Z,2.00
2018-08-14T22:18:11.056Z,3.70
2018-08-14T22:20:38.718Z,2.60
2018-08-14T22:23:05.694Z,2.60
2018-08-14T22:25:32.789Z,3.37
2018-08-14T22:27:59.814Z,2.50
2018-08-14T22:30:26.748Z,3.03
2018-08-14T22:32:53.962Z,2.17
2018-08-14T22:35:21.532Z,2.33
2018-08-14T22:37:48.396Z,3.10
2018-08-14T22:40:15.197Z,2.17
2018-08-14T22:42:43.491Z,2.10
2018-08-14T22:45:11.653Z,2.20
2018-08-14T22:47:40.421Z,2.10
2018-08-14T22:50:08.646Z,2.67
2018-08-14T22:52:36.721Z,2.70
2018-08-14T22:55:03.511Z,2.00
2018-08-14T22:57:30.241Z,5.37
2018-08-14T22:59:57.689Z,3.60
2018-08-14T23:02:25.627Z,1.93
2018-08-14T23:04:52.463Z,2.53
2018-08-14T23:07:19.195Z,2.37
2018-08-14T23:09:46.767Z,1.80
2018-08-14T23:12:13.777Z,2.17
2018-08-14T23:14:40.603Z,2.73
2018-08-14T23:17:07.340Z,1.93
2018-08-14T23:19:34.259Z,2.50
2018-08-14T23:22:01.204Z,2.10
2018-08-14T23:24:28.002Z,4.93
2018-08-14T23:26:55.531Z,2.93
2018-08-14T23:29:22.317Z,2.17
2018-08-14T23:31:49.270Z,2.53
2018-08-14T23:34:16.587Z,4.20
2018-08-14T23:36:43.629Z,2.83
2018-08-14T23:39:13.665Z,1.97
2018-08-14T23:41:41.590Z,1.83
2018-08-14T23:44:08.413Z,2.13
2018-08-14T23:46:35.603Z,2.60
2018-08-14T23:49:02.609Z,2.00
2018-08-14T23:51:30.639Z,2.87
2018-08-14T23:53:57.432Z,1.57
2018-08-14T23:56:25.347Z,3.13
2018-08-14T23:58:52.276Z,1.63
